Logo AVAMET
Benvolgut visitant, si us plau, ingressa Recuperar contrasenya

Sumacàrcer

Dades diàries. Acumulats / Últims 30 dies disponibles

Data Temperatura (°C) Humitat rel. (%) Pressió rel. (hPa) Vent (km/h) Precipitació
Mínima Mitjana Màxima Amplitud
tèrmica
Mínima Mitjana Màxima Mínima Mitjana Màxima Predom. Mitjana Ràfega
màxima
Total
(mm)
Índex-n
Mínima Mitjana Màxima Mínima Mitjana Màxima n
0 a 1
P0 max
mm 5'
Dades mensuals acumulades fins l'últim dia disponible
01/2020 4,1 6,2 9,3 10,1 8,6 16,7 20,4 16,3 37 74 99 1.013 1.027 1.035   3,8 55,5 243,7
Dades anuals acumulades fins l'últim dia disponible
2020 4,1 6,2 9,3 10,1 8,6 16,7 20,4 16,3 37 74 99 1.013 1.027 1.035   3,8 55,5 243,7
Últims 30 dies disponibles
23-01-2020 6,4     9,9     14,6 8,2 74 84 94 1.019 1.021 1.023 OSO 2,7 18,5 0,0
22-01-2020 7,4     10,1     15,4 8,0 70 85 99 1.018 1.019 1.021 NO 1,6 25,9 0,2
21-01-2020 7,8     10,3     12,4 4,6 92 95 97 1.013 1.016 1.021 NO 6,1 42,5 82,2 0,51 5,60
20-01-2020 4,2     6,9     8,6 4,4 88 92 95 1.019 1.021 1.022 N 14,2 48,1 97,7 0,51 3,50
19-01-2020 6,9     9,7     13,5 6,6 76 85 93 1.016 1.019 1.022 NNE 7,2 55,5 63,4 0,31 1,00
18-01-2020 9,3     13,0     19,7 10,4 51 67 83 1.020 1.028 1.033 O 1,6 22,2 0,0
17-01-2020 7,6     12,8     18,7 11,1 48 66 84 1.028 1.030 1.033 NO 3,6 37,0 0,0
16-01-2020 8,2     12,3     20,4 12,2 52 69 85 1.026 1.028 1.030 NO 2,8 18,5 0,0
15-01-2020 5,2     11,1     19,7 14,5 41 65 88 1.024 1.026 1.028 NO 2,8 20,4 0,0
14-01-2020 4,1     10,3     19,0 14,9 39 63 86 1.021 1.023 1.024 NO 1,4 18,5 0,0
13-01-2020 4,3     9,9     18,4 14,1 37 58 79 1.022 1.026 1.031 NO 2,9 25,9 0,0
12-01-2020 4,7     8,8     16,8 12,1 40 63 85 1.029 1.031 1.032 NO 2,4 20,4 0,0
11-01-2020 6,0     10,3     16,7 10,7 47 65 82 1.030 1.031 1.033 NNO 2,0 18,5 0,0
09-01-2020 6,1     9,9     17,8 11,7 58 76 94 1.025 1.028 1.031 NO 2,4 20,4 0,0
08-01-2020 6,6     9,8     14,1 7,5 63 79 95 1.028 1.031 1.032 NO 3,2 18,5 0,0
07-01-2020 5,0     9,5     18,1 13,1 53 73 92 1.028 1.031 1.033 NO 3,5 16,6 0,0
06-01-2020 7,3     10,9     17,8 10,5 57 75 92 1.028 1.030 1.031 NO 4,8 18,5 0,0
05-01-2020 6,7     10,2     18,9 12,2 50 69 87 1.027 1.030 1.032 NNO 4,6 22,2 0,0
04-01-2020 6,5     9,8     17,8 11,3 54 74 93 1.032 1.033 1.035 NO 4,3 18,5 0,0
03-01-2020 4,7     9,4     17,2 12,5 59 77 94 1.030 1.032 1.034 NNO 3,1 16,6 0,2
02-01-2020 4,7     8,6     16,0 11,3 63 78 93 1.030 1.032 1.034 NO 3,0 14,8 0,0
01-01-2020 6,0     9,3     16,3 10,3 61 77 93 1.031 1.033 1.034 NO 3,8 20,4 0,0
31-12-2019 5,8     9,3     15,9 10,1 65 78 91 1.032 1.033 1.036 NO 4,2 20,4 0,0
30-12-2019 7,6     11,3     16,3 8,7 62 78 93 1.032 1.033 1.035 NO 2,4 16,6 0,0
29-12-2019 8,1     10,5     16,6 8,5 66 79 92 1.030 1.033 1.035 O 3,9 16,6 0,0
28-12-2019 6,8     10,5     16,0 9,2 69 81 93 1.029 1.031 1.033 NNO 3,4 18,5 0,0
27-12-2019 8,3     12,3     21,5 13,2 51 71 90 1.027 1.029 1.031 NO 2,9 18,5 0,0
26-12-2019 11,1     16,3     22,9 11,8 44 64 83 1.023 1.025 1.030 NO 5,4 22,2 0,0
25-12-2019 10,8     14,8     22,7 11,9 55 70 85 1.023 1.025 1.027 ONO 4,4 20,4 0,0
24-12-2019 11,7     16,3     23,3 11,6 50 65 79 1.025 1.027 1.029 NO 6,7 29,6 0,0
Últims 13 mesos disponibles
12/2019 5,8 10,6 17,2 14,0 12,3 18,5 25,8 20,0 53 73 95 1.002 1.019 1.033 NO 5,4 66,6 107,9
11/2019 5,1 12,0 21,1 16,0 16,2 20,4 28,4 23,3 45 61 82 999 1.012 1.019 ONO 6,1 57,4 4,5
10/2019 10,8 15,8 20,5 20,7 16,7 27,1 35,6 24,8 45 67 86 1.010 1.018 1.023 NO 3,7 38,9 31,7
09/2019 15,9 20,2 23,9 24,5 21,9 30,0 37,3 21,4 45 71 88 1.011 1.019 1.026 NE 4,5 42,5 117,7
08/2019 18,2 22,5 28,8 27,9 28,6 34,6 43,3 25,1 51 66 78 1.011 1.016 1.021 NE 4,7 51,8 15,2
07/2019 20,1 22,7 26,9 28,3 29,6 34,7 39,8 19,7 47 62 79 1.007 1.015 1.022 NE 5,3 50,0 3,7
06/2019 12,8 18,0 22,5 24,3 23,1 31,1 40,3 27,5 38 60 76 1.010 1.016 1.023 NE 5,1 50,0 0,0
05/2019 9,8 14,7 21,4 20,3 19,4 27,0 33,3 23,5 48 64 84 1.007 1.016 1.025 NE 4,9 51,8 10,4
04/2019 8,7 11,5 14,7 16,1 14,8 21,6 31,1 22,4 45 67 97 1.001 1.015 1.026 ONO 5,2 50,0 150,7
03/2019 6,3 9,4 12,2 15,4 13,3 22,6 30,7 24,4 42 57 88 1.012 1.024 1.031 N 4,6 48,1 37,5
02/2019 3,9 7,5 11,7 12,7 13,8 20,2 27,6 23,7 40 62 80 997 1.027 1.035 NNO 4,8 70,3 0,0
01/2019 1,9 6,9 13,3 11,6 13,8 17,6 21,7 19,8 46 59 76 1.004 1.021 1.033 NO 5,4 50,0 0,2
12/2018 5,5 8,9 12,2 13,2 14,9 19,4 24,4 18,9 56 71 85 1.010 1.027 1.033 ONO 4,9 50,0 7,4
Tots els anys disponibles
2019 1,9 14,3 28,8 19,4 12,3 25,5 43,3 41,4 38 64 97 997 1.018 1.035 NE 5,0 70,3 479,5
2018 2,4 14,5 26,1 19,1 8,7 25,0 40,6 38,2 36 67 96 994 1.017 1.036 O 5,0 70,8 550,3
2017 -0,1 14,2 26,2 19,3 7,8 25,2 40,4 40,5 31 62 90 998 1.019 1.037 OSO 1,9 85,3 365,8
2016 2,6 14,7 26,2 19,9 11,7 25,1 42,7 40,1 32 62 94 996 1.018 1.038 80,0 673,0
2015 1,5 14,6 26,8 20,0 8,9 25,3 44,8 43,3 31 62 88 997 1.019 1.042 91,0 500,7
2014 3,1 15,0 25,4 20,3 11,4 25,7 42,8 39,7 33 60 90 994 1.017 1.035 80,0 379,4
2013 1,6 13,1 24,2 18,8 9,8 24,6 37,5 35,9 25 58 93 992 1.017 1.037 74,0 565,9
2012 -2,6 12,3 23,4 18,8 1,4 25,4 42,4 45,0 34 62 99 999 1.017 1.036 63,0 545,0
2011 -2,4 13,2 23,3 19,3 8,0 25,3 41,7 44,1 39 70 100 999 1.017 1.034 NE 74,0 607,1
2010 -3,0 12,3 24,0 18,1 5,0 23,9 43,5 36 68 98 991 1.014 1.030 NE 93,5 592,1
2009 -0,1 14,2 24,7 19,9 5,1 25,5 44,3 44,4 26 61 99 994 1.018 1.042 NE 78,3 714,0
2008 3,1 13,8 24,8 19,2 8,3 24,5 41,2 38,1 29 64 100 998 1.018 1.037 N 72,0 908,0
2007 1,8 14,0 24,1 19,4 7,5 24,7 40,4 38,6 29 63 100 999 1.017 1.036 NE 55,4 880,0
2006 -0,6 14,6 24,6 20,1 4,7 25,5 40,2 40,8 35 64 100 995 1.017 1.034 NE 52,2 318,0
2005 -2,7 13,4 25,0 19,1 6,0 24,8 40,4 43,1 29 62 99 1.001 1.018 1.042 NE 52,9 233,0
2004 1,4 14,0 24,5 19,5 8,6 24,9 39,8 38,4 31 65 100 994 1.017 1.034 NE 48,6 589,0
2003 1,2 14,3 26,6 20,0 6,3 25,7 42,9 41,7 27 60 97 998 1.018 1.037 NE 63,7 568,0
Temperatura (°C)
Humitat relativa (%)
Velocitat del vent i ràfega màxima (km/h)
Direcció del vent (°)
Pressió (hPa)
Precipitació (mm)
Nota sobre les dades: s'avisa a l'usuari de la provisionalitat i no oficialitat d'aquestes dades
Logo AVAMET blanc
Web allotjada a Sollutia
Llicència de Creative CommonsLa web d'AVAMET i els seus continguts estan subjectes a una llicència de
Reconeixement - No Comercial - Compartir igual
Últimes estacions: Xixona - Els Ameradors (Soci), Agres - El Tossal (Soci), Xàbia - Bevenguts (MeteoXàbia), Llíria (Aj. Soci/Inforatge), Orihuela - Lo Capitán, Cox & Guardamar del Segura - horta (Meteorihuela), l'Alcúdia - Carriona & el Real de Gandia (Inforatge), Benicàssim - les Vil·les (Soci),  l'Alfàs del Pi - l'Albir (Soci), - - -